PKDRZ WIHH-WIHH
Flight info
| Callsign | PKDRZ |
|---|---|
| Flight time | 0h 5m |
| Altitude | 3000 |
| Route | VFR HELIPAD SOUTH JAKARTA |
| Aircraft | H160/L-SBDGRY/S |
Departure
| Time | 2026-05-06 08:26 |
|---|---|
| Airport | Halim Perdanakusuma International Airport (WIHH) |
Arrival
| Time | 2026-05-06 08:32 |
|---|---|
| Airport | Halim Perdanakusuma International Airport (WIHH) |
| Time | Latitude | Longitude | Altitude | Speed | Heading |
|---|---|---|---|---|---|
| 2026-05-06 08:17 | -6.26691 | 106.89669 | 90 ft | 0 kts | 155° |
| 2026-05-06 08:24 | -6.26690 | 106.89668 | 91 ft | 3 kts | 210° |
| 2026-05-06 08:24 | -6.26689 | 106.89666 | 91 ft | 0 kts | 283° |
| 2026-05-06 08:25 | -6.26686 | 106.89585 | 91 ft | 21 kts | 282° |
| 2026-05-06 08:25 | -6.26685 | 106.89566 | 91 ft | 0 kts | 278° |
| 2026-05-06 08:25 | -6.26686 | 106.89566 | 94 ft | 2 kts | 316° |
| 2026-05-06 08:25 | -6.26656 | 106.89574 | 93 ft | 13 kts | 54° |
| 2026-05-06 08:26 | -6.26542 | 106.89636 | 95 ft | 27 kts | 359° |
| 2026-05-06 08:26 | -6.26374 | 106.89750 | 160 ft | 45 kts | 35° |
| 2026-05-06 08:26 | -6.26241 | 106.90065 | 428 ft | 54 kts | 76° |
| 2026-05-06 08:26 | -6.26145 | 106.90460 | 707 ft | 63 kts | 76° |
| 2026-05-06 08:27 | -6.26043 | 106.90919 | 931 ft | 72 kts | 78° |
| 2026-05-06 08:27 | -6.25943 | 106.91429 | 1089 ft | 79 kts | 80° |
| 2026-05-06 08:27 | -6.25849 | 106.91990 | 1240 ft | 85 kts | 81° |
| 2026-05-06 08:27 | -6.25766 | 106.92604 | 1359 ft | 92 kts | 83° |
| 2026-05-06 08:28 | -6.25696 | 106.93261 | 1458 ft | 97 kts | 84° |
| 2026-05-06 08:28 | -6.25642 | 106.93956 | 1550 ft | 102 kts | 85° |
| 2026-05-06 08:28 | -6.25496 | 106.94667 | 1613 ft | 106 kts | 73° |
| 2026-05-06 08:28 | -6.25250 | 106.95376 | 1672 ft | 109 kts | 69° |
| 2026-05-06 08:29 | -6.24956 | 106.96073 | 1773 ft | 105 kts | 65° |
| 2026-05-06 08:29 | -6.24637 | 106.96709 | 1941 ft | 99 kts | 61° |
| 2026-05-06 08:29 | -6.24293 | 106.97280 | 2113 ft | 92 kts | 57° |
| 2026-05-06 08:29 | -6.23927 | 106.97792 | 2292 ft | 88 kts | 53° |
| 2026-05-06 08:30 | -6.23476 | 106.98188 | 2464 ft | 88 kts | 24° |
| 2026-05-06 08:30 | -6.22810 | 106.98162 | 2423 ft | 111 kts | 339° |
| 2026-05-06 08:30 | -6.22257 | 106.97513 | 2188 ft | 137 kts | 292° |
| 2026-05-06 08:30 | -6.22100 | 106.96512 | 1873 ft | 153 kts | 279° |
| 2026-05-06 08:31 | -6.21968 | 106.95402 | 1302 ft | 167 kts | 280° |
| 2026-05-06 08:31 | -6.21812 | 106.94302 | 941 ft | 147 kts | 285° |
| 2026-05-06 08:31 | -6.21592 | 106.93380 | 634 ft | 126 kts | 286° |
| 2026-05-06 08:31 | -6.21466 | 106.92663 | 527 ft | 88 kts | 274° |
| 2026-05-06 08:32 | -6.21433 | 106.92140 | 337 ft | 60 kts | 265° |
| 2026-05-06 08:32 | -6.21429 | 106.91833 | 425 ft | 40 kts | 263° |
| 2026-05-06 08:32 | -6.21434 | 106.91548 | 469 ft | 41 kts | 275° |
| 2026-05-06 08:32 | -6.21410 | 106.91266 | 589 ft | 42 kts | 265° |
| 2026-05-06 08:33 | -6.21417 | 106.90912 | 921 ft | 61 kts | 266° |
| 2026-05-06 08:33 | -6.21496 | 106.90416 | 1200 ft | 82 kts | 265° |
| 2026-05-06 08:33 | -6.21562 | 106.89786 | 1381 ft | 99 kts | 265° |
| 2026-05-06 08:33 | -6.21614 | 106.89039 | 1486 ft | 114 kts | 270° |
| 2026-05-06 08:34 | -6.21613 | 106.88195 | 1583 ft | 127 kts | 274° |
| 2026-05-06 08:34 | -6.21460 | 106.86271 | 1820 ft | 148 kts | 277° |
| 2026-05-06 08:34 | -6.21451 | 106.85574 | 1886 ft | 156 kts | 261° |
| 2026-05-06 08:35 | -6.21892 | 106.84551 | 1955 ft | 163 kts | 241° |
| 2026-05-06 08:35 | -6.22858 | 106.83375 | 1975 ft | 171 kts | 208° |
| 2026-05-06 08:35 | -6.23616 | 106.83123 | 1985 ft | 176 kts | 193° |